createdAt,value
2023-05-13T00:01:19.163Z,9.70
2023-05-13T00:05:31.931Z,10.55
2023-05-13T00:09:35.578Z,9.32
2023-05-13T00:13:41.270Z,9.00
2023-05-13T00:17:50.804Z,9.63
2023-05-13T00:22:00.176Z,8.05
2023-05-13T00:26:03.961Z,7.95
2023-05-13T00:30:09.529Z,7.38
2023-05-13T00:34:20.390Z,8.20
2023-05-13T00:38:31.765Z,7.68
2023-05-13T00:42:40.462Z,7.25
2023-05-13T00:46:44.176Z,7.38
2023-05-13T00:50:52.177Z,7.80
2023-05-13T00:54:54.901Z,6.82
2023-05-13T00:59:02.563Z,7.47
2023-05-13T01:03:24.739Z,8.85
2023-05-13T01:07:54.740Z,7.82
2023-05-13T01:12:06.932Z,6.50
2023-05-13T01:16:31.961Z,7.72
2023-05-13T01:20:41.645Z,8.25
2023-05-13T01:25:02.561Z,7.13
2023-05-13T01:29:08.933Z,8.50
2023-05-13T01:33:22.477Z,7.85
2023-05-13T01:37:30.787Z,7.57
2023-05-13T01:41:37.196Z,8.35
2023-05-13T01:45:43.304Z,7.88
2023-05-13T01:49:48.310Z,7.75
2023-05-13T01:53:54.965Z,7.78
2023-05-13T01:58:02.153Z,8.07
2023-05-13T02:02:06.374Z,8.45
2023-05-13T02:06:11.982Z,7.40
2023-05-13T02:10:17.469Z,9.35
2023-05-13T02:14:21.467Z,8.65
2023-05-13T02:18:30.644Z,8.65
2023-05-13T02:22:36.784Z,8.70
2023-05-13T02:26:45.650Z,7.13
2023-05-13T02:30:48.618Z,7.88
2023-05-13T02:34:57.884Z,7.65
2023-05-13T02:39:09.049Z,6.80
2023-05-13T02:43:18.880Z,6.53
2023-05-13T02:47:29.999Z,7.82
2023-05-13T02:51:39.598Z,6.00
2023-05-13T02:55:46.067Z,6.93
2023-05-13T02:59:57.007Z,7.45
2023-05-13T03:04:06.217Z,7.13
2023-05-13T03:08:13.664Z,6.90
2023-05-13T03:12:24.331Z,7.30
2023-05-13T03:16:30.805Z,7.28
2023-05-13T03:20:42.304Z,7.35
2023-05-13T03:24:55.360Z,7.32
2023-05-13T03:29:05.155Z,7.90
2023-05-13T03:33:27.277Z,8.60
2023-05-13T03:37:30.597Z,7.50
2023-05-13T03:41:34.711Z,8.95
2023-05-13T03:45:49.873Z,8.18
2023-05-13T03:50:00.754Z,8.23
2023-05-13T03:54:11.620Z,8.70
2023-05-13T03:58:19.522Z,7.90
2023-05-13T04:02:32.200Z,8.02
2023-05-13T04:06:44.754Z,7.30
2023-05-13T04:11:10.346Z,8.13
2023-05-13T04:15:14.836Z,7.47
2023-05-13T04:19:23.765Z,8.00
2023-05-13T04:23:30.213Z,7.65
2023-05-13T04:27:39.031Z,7.35
2023-05-13T04:31:51.779Z,6.72
2023-05-13T04:36:01.483Z,6.13
2023-05-13T04:40:13.555Z,6.18
2023-05-13T04:44:29.814Z,5.47
2023-05-13T04:48:40.473Z,5.53
2023-05-13T04:52:45.670Z,6.28
2023-05-13T04:56:52.988Z,5.65
2023-05-13T05:01:03.861Z,5.32
2023-05-13T05:05:16.727Z,4.72
2023-05-13T05:09:22.907Z,5.00
2023-05-13T05:13:32.886Z,5.28
2023-05-13T05:17:39.904Z,5.30
2023-05-13T05:21:59.545Z,5.25
2023-05-13T05:26:11.516Z,4.57
2023-05-13T05:30:21.560Z,5.18
2023-05-13T05:34:35.919Z,5.20
2023-05-13T05:38:43.043Z,4.40
2023-05-13T05:42:52.676Z,4.65
2023-05-13T05:47:03.421Z,4.80
2023-05-13T05:51:08.285Z,5.03
2023-05-13T05:55:21.951Z,4.50
2023-05-13T05:59:31.979Z,4.15
2023-05-13T06:03:38.428Z,4.05
2023-05-13T06:07:44.219Z,3.95
2023-05-13T06:11:58.435Z,4.10
2023-05-13T06:16:11.509Z,3.70
2023-05-13T06:20:20.580Z,4.05
2023-05-13T06:24:27.588Z,3.97
2023-05-13T06:28:39.475Z,3.10
2023-05-13T06:32:57.683Z,3.85
2023-05-13T06:37:12.810Z,3.80
2023-05-13T06:41:21.391Z,3.65
2023-05-13T06:45:31.938Z,3.42
2023-05-13T06:49:44.376Z,3.08
2023-05-13T06:53:50.950Z,3.30
2023-05-13T06:58:01.450Z,3.33
2023-05-13T07:02:07.957Z,3.00
2023-05-13T07:06:11.934Z,2.67
2023-05-13T07:10:23.168Z,3.35
2023-05-13T07:14:34.393Z,3.22
2023-05-13T07:18:40.346Z,2.85
2023-05-13T07:22:52.807Z,3.25
2023-05-13T07:27:02.183Z,2.85
2023-05-13T07:31:12.074Z,3.03
2023-05-13T07:35:18.018Z,2.88
2023-05-13T07:39:21.557Z,2.72
2023-05-13T07:43:25.654Z,2.60
2023-05-13T07:47:36.691Z,2.42
2023-05-13T07:51:39.688Z,3.45
2023-05-13T07:55:45.228Z,2.45
2023-05-13T07:59:55.750Z,2.78
2023-05-13T08:04:06.960Z,2.67
2023-05-13T08:08:10.867Z,2.80
2023-05-13T08:12:19.760Z,2.13
2023-05-13T08:16:24.886Z,2.85
2023-05-13T08:20:35.420Z,2.45
2023-05-13T08:24:43.875Z,2.95
2023-05-13T08:28:51.060Z,2.40
2023-05-13T08:33:03.468Z,3.05
2023-05-13T08:37:15.012Z,2.72
2023-05-13T08:41:23.586Z,2.50
2023-05-13T08:45:35.778Z,2.83
2023-05-13T08:49:39.634Z,2.87
2023-05-13T08:53:48.548Z,2.70
2023-05-13T08:57:55.853Z,2.90
2023-05-13T09:02:05.602Z,3.83
2023-05-13T09:06:11.196Z,2.65
2023-05-13T09:10:16.641Z,2.80
2023-05-13T09:14:22.794Z,3.00
2023-05-13T09:18:32.690Z,3.15
2023-05-13T09:22:40.979Z,3.28
2023-05-13T09:26:44.605Z,2.80
2023-05-13T09:30:57.744Z,3.05
2023-05-13T09:35:18.169Z,3.05
2023-05-13T09:39:20.992Z,3.25
2023-05-13T09:43:34.915Z,3.03
2023-05-13T09:47:41.674Z,3.05
2023-05-13T09:51:49.981Z,3.05
2023-05-13T09:55:56.230Z,2.40
2023-05-13T10:00:20.985Z,3.05
2023-05-13T10:04:32.638Z,3.20
2023-05-13T10:08:37.709Z,3.00
2023-05-13T10:12:43.732Z,3.15
2023-05-13T10:16:48.346Z,3.15
2023-05-13T10:20:58.857Z,2.85
2023-05-13T10:25:06.454Z,3.10
2023-05-13T10:29:15.300Z,3.38
2023-05-13T10:33:22.169Z,3.03
2023-05-13T10:37:58.646Z,2.90
2023-05-13T10:42:45.201Z,3.30
2023-05-13T10:46:49.313Z,3.28
2023-05-13T10:51:09.143Z,3.15
2023-05-13T10:55:21.923Z,3.08
2023-05-13T10:59:31.618Z,2.75
2023-05-13T11:03:36.145Z,3.10
2023-05-13T11:07:40.173Z,3.38
2023-05-13T11:11:51.575Z,3.42
2023-05-13T11:15:56.069Z,3.70
2023-05-13T11:20:01.795Z,2.97
2023-05-13T11:24:11.068Z,2.80
2023-05-13T11:28:19.348Z,2.75
2023-05-13T11:32:58.964Z,2.85
2023-05-13T11:41:09.133Z,2.85
2023-05-13T11:45:20.041Z,2.95
2023-05-13T11:49:45.502Z,3.10
2023-05-13T11:53:49.116Z,3.75
2023-05-13T11:57:52.017Z,3.53
2023-05-13T12:02:08.525Z,2.90
2023-05-13T12:06:19.474Z,3.00
2023-05-13T12:10:29.626Z,3.22
2023-05-13T12:14:33.899Z,3.85
2023-05-13T12:18:40.467Z,3.20
2023-05-13T12:22:52.891Z,3.30
2023-05-13T12:27:13.135Z,3.38
2023-05-13T12:31:19.340Z,3.00
2023-05-13T12:35:26.503Z,2.90
2023-05-13T12:39:32.660Z,2.53
2023-05-13T12:43:37.662Z,2.78
2023-05-13T12:47:53.771Z,2.53
2023-05-13T12:51:59.836Z,2.50
2023-05-13T12:56:03.543Z,2.83
2023-05-13T13:00:07.907Z,2.35
2023-05-13T13:04:13.969Z,2.55
2023-05-13T13:08:20.160Z,2.67
2023-05-13T13:12:26.185Z,3.13
2023-05-13T13:16:32.285Z,2.85
2023-05-13T13:20:40.199Z,3.10
2023-05-13T13:24:46.297Z,3.05
2023-05-13T13:28:49.601Z,2.70
2023-05-13T13:32:56.128Z,3.67
2023-05-13T13:37:08.593Z,3.33
2023-05-13T13:41:17.485Z,3.17
2023-05-13T13:45:25.409Z,3.10
2023-05-13T13:49:36.407Z,5.15
2023-05-13T13:53:43.731Z,4.75
2023-05-13T13:57:54.559Z,3.97
2023-05-13T14:02:00.816Z,3.55
2023-05-13T14:06:06.516Z,3.38
2023-05-13T14:10:15.024Z,3.53
2023-05-13T14:14:22.995Z,2.67
2023-05-13T14:18:28.407Z,3.40
2023-05-13T14:22:32.511Z,2.95
2023-05-13T14:26:35.435Z,3.30
2023-05-13T14:30:41.718Z,2.95
2023-05-13T14:34:47.344Z,2.90
2023-05-13T14:38:55.374Z,2.80
2023-05-13T14:43:05.727Z,3.30
2023-05-13T14:47:21.797Z,2.65
2023-05-13T14:51:28.941Z,2.53
2023-05-13T14:55:32.372Z,2.75
2023-05-13T14:59:40.342Z,4.80
2023-05-13T15:03:50.136Z,3.63
2023-05-13T15:07:53.343Z,2.50
2023-05-13T15:12:05.715Z,2.78
2023-05-13T15:16:09.005Z,2.63
2023-05-13T15:20:15.569Z,2.90
2023-05-13T15:24:18.656Z,2.65
2023-05-13T15:28:28.064Z,2.72
2023-05-13T15:32:31.314Z,2.80
2023-05-13T15:36:38.346Z,2.72
2023-05-13T15:40:42.025Z,2.80
2023-05-13T15:44:46.287Z,2.50
2023-05-13T15:48:52.249Z,2.67
2023-05-13T15:53:02.459Z,2.85
2023-05-13T15:57:08.716Z,2.72
2023-05-13T16:01:11.606Z,2.80
2023-05-13T16:05:16.024Z,3.45
2023-05-13T16:09:19.168Z,2.70
2023-05-13T16:13:33.822Z,2.22
2023-05-13T16:17:37.280Z,2.47
2023-05-13T16:21:43.372Z,2.67
2023-05-13T16:25:46.551Z,2.13
2023-05-13T16:29:52.696Z,2.40
2023-05-13T16:33:58.012Z,2.45
2023-05-13T16:38:04.186Z,2.50
2023-05-13T16:42:08.227Z,2.47
2023-05-13T16:46:15.312Z,2.67
2023-05-13T16:50:23.783Z,2.22
2023-05-13T16:54:33.830Z,3.75
2023-05-13T16:58:37.976Z,2.80
2023-05-13T17:02:43.545Z,2.70
2023-05-13T17:06:52.239Z,3.13
2023-05-13T17:10:59.878Z,2.70
2023-05-13T17:15:09.896Z,3.05
2023-05-13T17:19:20.326Z,3.05
2023-05-13T17:23:30.399Z,3.15
2023-05-13T17:27:35.918Z,3.28
2023-05-13T17:31:44.784Z,3.33
2023-05-13T17:35:48.758Z,3.08
2023-05-13T17:40:01.307Z,3.10
2023-05-13T17:44:10.602Z,2.72
2023-05-13T17:48:20.166Z,2.60
2023-05-13T17:52:23.492Z,3.00
2023-05-13T17:56:34.989Z,3.13
2023-05-13T18:00:37.844Z,3.10
2023-05-13T18:04:41.589Z,3.00
2023-05-13T18:08:44.278Z,2.75
2023-05-13T18:17:03.104Z,2.67
2023-05-13T18:21:07.002Z,3.10
2023-05-13T18:33:23.465Z,4.90
2023-05-13T18:37:26.757Z,7.88
2023-05-13T18:41:34.047Z,5.30
2023-05-13T18:45:40.159Z,4.25
2023-05-13T18:49:47.265Z,4.18
2023-05-13T18:53:50.249Z,3.78
2023-05-13T18:57:56.080Z,3.90
2023-05-13T19:02:02.283Z,4.43
2023-05-13T19:06:13.399Z,3.97
2023-05-13T19:10:22.032Z,3.83
2023-05-13T19:14:28.220Z,4.25
2023-05-13T19:18:31.275Z,3.60
2023-05-13T19:22:34.750Z,3.33
2023-05-13T19:26:40.637Z,3.85
2023-05-13T19:30:45.602Z,4.03
2023-05-13T19:34:48.369Z,4.90
2023-05-13T19:38:58.142Z,6.88
2023-05-13T19:43:07.509Z,9.90
2023-05-13T19:47:14.605Z,13.07
2023-05-13T19:51:22.213Z,13.43
2023-05-13T19:55:25.702Z,10.15
2023-05-13T19:59:28.538Z,8.88
2023-05-13T20:03:37.231Z,8.32
2023-05-13T20:07:43.604Z,7.05
2023-05-13T20:11:48.666Z,5.22
2023-05-13T20:15:54.802Z,4.82
2023-05-13T20:19:58.786Z,4.68
2023-05-13T20:24:04.395Z,5.10
2023-05-13T20:28:18.245Z,5.53
2023-05-13T20:32:25.558Z,6.10
2023-05-13T20:36:33.097Z,6.80
2023-05-13T20:40:38.458Z,7.50
2023-05-13T20:44:44.953Z,7.40
2023-05-13T20:48:48.810Z,7.13
2023-05-13T20:52:55.389Z,5.35
2023-05-13T20:57:04.531Z,4.70
2023-05-13T21:01:13.478Z,4.18
2023-05-13T21:05:22.444Z,6.00
2023-05-13T21:09:28.038Z,7.25
2023-05-13T21:13:33.270Z,6.72
2023-05-13T21:17:36.488Z,5.35
2023-05-13T21:21:39.541Z,5.65
2023-05-13T21:29:54.656Z,4.60
2023-05-13T21:33:59.490Z,3.92
2023-05-13T21:38:12.444Z,4.70
2023-05-13T21:42:17.984Z,6.03
2023-05-13T21:46:30.984Z,5.93
2023-05-13T21:50:36.492Z,5.85
2023-05-13T21:54:46.627Z,4.68
2023-05-13T21:58:52.670Z,4.47
2023-05-13T22:07:04.180Z,3.90
2023-05-13T22:11:08.178Z,4.07
2023-05-13T22:15:13.806Z,4.28
2023-05-13T22:19:21.165Z,4.25
2023-05-13T22:23:28.166Z,3.70
2023-05-13T22:27:31.586Z,4.40
2023-05-13T22:31:34.773Z,4.35
2023-05-13T22:35:42.878Z,4.85
2023-05-13T22:39:51.534Z,5.07
2023-05-13T22:44:00.146Z,5.15
2023-05-13T22:48:12.848Z,5.25
2023-05-13T22:52:16.345Z,4.82
2023-05-13T22:56:19.280Z,5.72
2023-05-13T23:04:29.377Z,7.25
2023-05-13T23:08:35.548Z,8.65
2023-05-13T23:12:40.351Z,6.15
2023-05-13T23:16:47.638Z,5.90
2023-05-13T23:21:01.632Z,5.15
2023-05-13T23:25:12.798Z,4.20
2023-05-13T23:29:23.032Z,4.45
2023-05-13T23:33:33.197Z,4.25
2023-05-13T23:37:39.330Z,3.67
2023-05-13T23:41:50.172Z,4.30
2023-05-13T23:45:58.629Z,3.92
2023-05-13T23:50:07.024Z,4.88
2023-05-13T23:54:21.143Z,4.00
2023-05-13T23:58:41.450Z,4.75
